sensor_id;sensor_type;location;lat;lon;timestamp;pressure;altitude;pressure_sealevel;temperature
44429;BMP180;30134;47.866;-4.222;2022-09-25T00:00:56;101896.00;;;23.80
44429;BMP180;30134;47.866;-4.222;2022-09-25T00:03:25;101903.00;;;23.80
44429;BMP180;30134;47.866;-4.222;2022-09-25T00:05:58;101903.00;;;23.80
44429;BMP180;30134;47.866;-4.222;2022-09-25T00:08:24;101903.00;;;23.80
44429;BMP180;30134;47.866;-4.222;2022-09-25T00:10:50;101901.00;;;23.80
44429;BMP180;30134;47.866;-4.222;2022-09-25T00:13:18;101900.00;;;23.80
44429;BMP180;30134;47.866;-4.222;2022-09-25T00:15:50;101899.00;;;23.80
44429;BMP180;30134;47.866;-4.222;2022-09-25T00:18:18;101897.00;;;23.80
44429;BMP180;30134;47.866;-4.222;2022-09-25T00:21:10;101892.00;;;23.80
44429;BMP180;30134;47.866;-4.222;2022-09-25T00:23:38;101893.00;;;23.80
44429;BMP180;30134;47.866;-4.222;2022-09-25T00:26:05;101893.00;;;23.80
44429;BMP180;30134;47.866;-4.222;2022-09-25T00:28:34;101894.00;;;23.80
44429;BMP180;30134;47.866;-4.222;2022-09-25T00:31:02;101894.00;;;23.80
44429;BMP180;30134;47.866;-4.222;2022-09-25T00:33:30;101898.00;;;23.80
44429;BMP180;30134;47.866;-4.222;2022-09-25T00:36:08;101901.00;;;23.80
44429;BMP180;30134;47.866;-4.222;2022-09-25T00:38:37;101899.00;;;23.80
44429;BMP180;30134;47.866;-4.222;2022-09-25T00:41:05;101899.00;;;23.80
44429;BMP180;30134;47.866;-4.222;2022-09-25T00:43:45;101902.00;;;23.80
44429;BMP180;30134;47.866;-4.222;2022-09-25T00:49:13;101889.00;;;23.80
44429;BMP180;30134;47.866;-4.222;2022-09-25T00:52:04;101890.00;;;23.80
44429;BMP180;30134;47.866;-4.222;2022-09-25T00:54:38;101889.00;;;23.80
44429;BMP180;30134;47.866;-4.222;2022-09-25T00:57:09;101882.00;;;23.80
44429;BMP180;30134;47.866;-4.222;2022-09-25T00:59:49;101891.00;;;23.80
44429;BMP180;30134;47.866;-4.222;2022-09-25T01:03:13;101889.00;;;23.80
44429;BMP180;30134;47.866;-4.222;2022-09-25T01:05:36;101884.00;;;23.80
44429;BMP180;30134;47.866;-4.222;2022-09-25T01:08:05;101881.00;;;23.80
44429;BMP180;30134;47.866;-4.222;2022-09-25T01:10:32;101883.00;;;23.80
44429;BMP180;30134;47.866;-4.222;2022-09-25T01:12:59;101881.00;;;23.70
44429;BMP180;30134;47.866;-4.222;2022-09-25T01:15:52;101873.00;;;23.80
44429;BMP180;30134;47.866;-4.222;2022-09-25T01:30:18;101888.00;;;23.80
44429;BMP180;30134;47.866;-4.222;2022-09-25T01:33:02;101886.00;;;23.70
44429;BMP180;30134;47.866;-4.222;2022-09-25T01:35:58;101888.00;;;23.70
44429;BMP180;30134;47.866;-4.222;2022-09-25T01:41:34;101896.00;;;23.70
44429;BMP180;30134;47.866;-4.222;2022-09-25T01:46:56;101888.00;;;23.70
44429;BMP180;30134;47.866;-4.222;2022-09-25T01:50:22;101886.00;;;23.70
44429;BMP180;30134;47.866;-4.222;2022-09-25T01:52:42;101892.00;;;23.70
44429;BMP180;30134;47.866;-4.222;2022-09-25T01:55:22;101888.00;;;23.60
44429;BMP180;30134;47.866;-4.222;2022-09-25T01:57:56;101880.00;;;23.60
44429;BMP180;30134;47.866;-4.222;2022-09-25T02:00:27;101876.00;;;23.60
44429;BMP180;30134;47.866;-4.222;2022-09-25T02:03:16;101870.00;;;23.60
44429;BMP180;30134;47.866;-4.222;2022-09-25T02:05:47;101877.00;;;23.60
44429;BMP180;30134;47.866;-4.222;2022-09-25T02:08:25;101869.00;;;23.60
44429;BMP180;30134;47.866;-4.222;2022-09-25T02:11:00;101871.00;;;23.60
44429;BMP180;30134;47.866;-4.222;2022-09-25T02:16:18;101857.00;;;23.60
44429;BMP180;30134;47.866;-4.222;2022-09-25T02:18:46;101861.00;;;23.60
44429;BMP180;30134;47.866;-4.222;2022-09-25T02:21:43;101858.00;;;23.60
44429;BMP180;30134;47.866;-4.222;2022-09-25T02:26:50;101870.00;;;23.60
44429;BMP180;30134;47.866;-4.222;2022-09-25T02:29:17;101862.00;;;23.60
44429;BMP180;30134;47.866;-4.222;2022-09-25T02:32:01;101860.00;;;23.60
44429;BMP180;30134;47.866;-4.222;2022-09-25T02:34:28;101858.00;;;23.60
44429;BMP180;30134;47.866;-4.222;2022-09-25T02:36:55;101860.00;;;23.60
44429;BMP180;30134;47.866;-4.222;2022-09-25T02:39:28;101862.00;;;23.60
44429;BMP180;30134;47.866;-4.222;2022-09-25T02:53:41;101861.00;;;23.60
44429;BMP180;30134;47.866;-4.222;2022-09-25T02:59:22;101858.00;;;23.60
44429;BMP180;30134;47.866;-4.222;2022-09-25T03:01:50;101855.00;;;23.50
44429;BMP180;30134;47.866;-4.222;2022-09-25T03:04:18;101854.00;;;23.60
44429;BMP180;30134;47.866;-4.222;2022-09-25T03:06:45;101853.00;;;23.60
44429;BMP180;30134;47.866;-4.222;2022-09-25T03:09:14;101857.00;;;23.60
44429;BMP180;30134;47.866;-4.222;2022-09-25T03:11:41;101854.00;;;23.60
44429;BMP180;30134;47.866;-4.222;2022-09-25T03:14:09;101855.00;;;23.50
44429;BMP180;30134;47.866;-4.222;2022-09-25T03:16:50;101855.00;;;23.50
44429;BMP180;30134;47.866;-4.222;2022-09-25T03:19:18;101856.00;;;23.50
44429;BMP180;30134;47.866;-4.222;2022-09-25T03:21:47;101856.00;;;23.50
44429;BMP180;30134;47.866;-4.222;2022-09-25T03:24:14;101863.00;;;23.50
44429;BMP180;30134;47.866;-4.222;2022-09-25T03:26:41;101859.00;;;23.50
44429;BMP180;30134;47.866;-4.222;2022-09-25T03:29:08;101862.00;;;23.50
44429;BMP180;30134;47.866;-4.222;2022-09-25T03:31:34;101858.00;;;23.50
44429;BMP180;30134;47.866;-4.222;2022-09-25T03:34:00;101857.00;;;23.50
44429;BMP180;30134;47.866;-4.222;2022-09-25T03:36:29;101853.00;;;23.50
44429;BMP180;30134;47.866;-4.222;2022-09-25T03:38:57;101852.00;;;23.50
44429;BMP180;30134;47.866;-4.222;2022-09-25T03:41:29;101856.00;;;23.50
44429;BMP180;30134;47.866;-4.222;2022-09-25T03:43:57;101851.00;;;23.50
44429;BMP180;30134;47.866;-4.222;2022-09-25T03:46:30;101844.00;;;23.50
44429;BMP180;30134;47.866;-4.222;2022-09-25T03:48:57;101851.00;;;23.50
44429;BMP180;30134;47.866;-4.222;2022-09-25T03:51:26;101848.00;;;23.50
44429;BMP180;30134;47.866;-4.222;2022-09-25T03:53:53;101850.00;;;23.50
44429;BMP180;30134;47.866;-4.222;2022-09-25T03:56:22;101854.00;;;23.50
44429;BMP180;30134;47.866;-4.222;2022-09-25T03:58:51;101858.00;;;23.50
44429;BMP180;30134;47.866;-4.222;2022-09-25T04:01:19;101858.00;;;23.50
44429;BMP180;30134;47.866;-4.222;2022-09-25T04:03:46;101853.00;;;23.50
44429;BMP180;30134;47.866;-4.222;2022-09-25T04:06:15;101861.00;;;23.50
44429;BMP180;30134;47.866;-4.222;2022-09-25T04:08:45;101851.00;;;23.50
44429;BMP180;30134;47.866;-4.222;2022-09-25T04:11:11;101853.00;;;23.50
44429;BMP180;30134;47.866;-4.222;2022-09-25T04:13:37;101852.00;;;23.50
44429;BMP180;30134;47.866;-4.222;2022-09-25T04:16:07;101846.00;;;23.50
44429;BMP180;30134;47.866;-4.222;2022-09-25T04:18:35;101845.00;;;23.50
44429;BMP180;30134;47.866;-4.222;2022-09-25T04:21:06;101852.00;;;23.50
44429;BMP180;30134;47.866;-4.222;2022-09-25T04:23:34;101851.00;;;23.50
44429;BMP180;30134;47.866;-4.222;2022-09-25T04:26:00;101847.00;;;23.50
44429;BMP180;30134;47.866;-4.222;2022-09-25T04:28:27;101852.00;;;23.50
44429;BMP180;30134;47.866;-4.222;2022-09-25T04:30:56;101849.00;;;23.50
44429;BMP180;30134;47.866;-4.222;2022-09-25T04:33:22;101852.00;;;23.50
44429;BMP180;30134;47.866;-4.222;2022-09-25T04:36:07;101846.00;;;23.50
44429;BMP180;30134;47.866;-4.222;2022-09-25T04:38:33;101846.00;;;23.50
44429;BMP180;30134;47.866;-4.222;2022-09-25T04:40:59;101853.00;;;23.50
44429;BMP180;30134;47.866;-4.222;2022-09-25T04:43:31;101854.00;;;23.50
44429;BMP180;30134;47.866;-4.222;2022-09-25T04:46:05;101849.00;;;23.40
44429;BMP180;30134;47.866;-4.222;2022-09-25T04:48:33;101854.00;;;23.40
44429;BMP180;30134;47.866;-4.222;2022-09-25T04:51:00;101850.00;;;23.40
44429;BMP180;30134;47.866;-4.222;2022-09-25T04:53:28;101851.00;;;23.40
44429;BMP180;30134;47.866;-4.222;2022-09-25T04:56:01;101857.00;;;23.40
44429;BMP180;30134;47.866;-4.222;2022-09-25T04:58:27;101854.00;;;23.40
44429;BMP180;30134;47.866;-4.222;2022-09-25T05:00:53;101854.00;;;23.40
44429;BMP180;30134;47.866;-4.222;2022-09-25T05:03:19;101855.00;;;23.40
44429;BMP180;30134;47.866;-4.222;2022-09-25T05:05:45;101855.00;;;23.40
44429;BMP180;30134;47.866;-4.222;2022-09-25T05:08:11;101854.00;;;23.40
44429;BMP180;30134;47.866;-4.222;2022-09-25T05:10:37;101856.00;;;23.40
44429;BMP180;30134;47.866;-4.222;2022-09-25T05:13:06;101870.00;;;23.40
44429;BMP180;30134;47.866;-4.222;2022-09-25T05:15:34;101861.00;;;23.40
44429;BMP180;30134;47.866;-4.222;2022-09-25T05:18:14;101856.00;;;23.40
44429;BMP180;30134;47.866;-4.222;2022-09-25T05:20:40;101875.00;;;23.40
44429;BMP180;30134;47.866;-4.222;2022-09-25T05:23:07;101876.00;;;23.40
44429;BMP180;30134;47.866;-4.222;2022-09-25T05:25:33;101877.00;;;23.30
44429;BMP180;30134;47.866;-4.222;2022-09-25T05:28:01;101887.00;;;23.30
44429;BMP180;30134;47.866;-4.222;2022-09-25T05:30:31;101887.00;;;23.30
44429;BMP180;30134;47.866;-4.222;2022-09-25T05:32:58;101887.00;;;23.30
44429;BMP180;30134;47.866;-4.222;2022-09-25T05:35:26;101891.00;;;23.30
44429;BMP180;30134;47.866;-4.222;2022-09-25T05:37:53;101898.00;;;23.30
44429;BMP180;30134;47.866;-4.222;2022-09-25T05:40:20;101895.00;;;23.30
44429;BMP180;30134;47.866;-4.222;2022-09-25T05:42:46;101895.00;;;23.30
44429;BMP180;30134;47.866;-4.222;2022-09-25T05:45:18;101904.00;;;23.40
44429;BMP180;30134;47.866;-4.222;2022-09-25T05:47:45;101903.00;;;23.30
44429;BMP180;30134;47.866;-4.222;2022-09-25T05:50:14;101900.00;;;23.30
44429;BMP180;30134;47.866;-4.222;2022-09-25T05:52:42;101898.00;;;23.30
44429;BMP180;30134;47.866;-4.222;2022-09-25T05:55:09;101895.00;;;23.30
44429;BMP180;30134;47.866;-4.222;2022-09-25T05:57:36;101902.00;;;23.30
44429;BMP180;30134;47.866;-4.222;2022-09-25T06:00:06;101899.00;;;23.30
44429;BMP180;30134;47.866;-4.222;2022-09-25T06:02:34;101900.00;;;23.30
44429;BMP180;30134;47.866;-4.222;2022-09-25T06:05:00;101896.00;;;23.30
44429;BMP180;30134;47.866;-4.222;2022-09-25T06:07:26;101899.00;;;23.30
44429;BMP180;30134;47.866;-4.222;2022-09-25T06:09:52;101902.00;;;23.30
44429;BMP180;30134;47.866;-4.222;2022-09-25T06:12:17;101912.00;;;23.30
44429;BMP180;30134;47.866;-4.222;2022-09-25T06:14:44;101906.00;;;23.30
44429;BMP180;30134;47.866;-4.222;2022-09-25T06:17:11;101906.00;;;23.30
44429;BMP180;30134;47.866;-4.222;2022-09-25T06:19:38;101908.00;;;23.30
44429;BMP180;30134;47.866;-4.222;2022-09-25T06:22:04;101903.00;;;23.30
44429;BMP180;30134;47.866;-4.222;2022-09-25T06:24:29;101906.00;;;23.30
44429;BMP180;30134;47.866;-4.222;2022-09-25T06:26:55;101903.00;;;23.20
44429;BMP180;30134;47.866;-4.222;2022-09-25T06:29:21;101911.00;;;23.30
44429;BMP180;30134;47.866;-4.222;2022-09-25T06:31:47;101914.00;;;23.30
44429;BMP180;30134;47.866;-4.222;2022-09-25T06:34:13;101917.00;;;23.30
44429;BMP180;30134;47.866;-4.222;2022-09-25T06:36:39;101919.00;;;23.30
44429;BMP180;30134;47.866;-4.222;2022-09-25T06:39:06;101921.00;;;23.30
44429;BMP180;30134;47.866;-4.222;2022-09-25T06:41:33;101917.00;;;23.30
44429;BMP180;30134;47.866;-4.222;2022-09-25T06:43:59;101929.00;;;23.20
44429;BMP180;30134;47.866;-4.222;2022-09-25T06:46:25;101925.00;;;23.20
44429;BMP180;30134;47.866;-4.222;2022-09-25T06:48:52;101934.00;;;23.30
44429;BMP180;30134;47.866;-4.222;2022-09-25T06:51:27;101936.00;;;23.20
44429;BMP180;30134;47.866;-4.222;2022-09-25T06:53:56;101939.00;;;23.20
44429;BMP180;30134;47.866;-4.222;2022-09-25T06:56:22;101938.00;;;23.20
44429;BMP180;30134;47.866;-4.222;2022-09-25T06:58:49;101945.00;;;23.20
44429;BMP180;30134;47.866;-4.222;2022-09-25T07:01:15;101942.00;;;23.20
44429;BMP180;30134;47.866;-4.222;2022-09-25T07:03:41;101946.00;;;23.20
44429;BMP180;30134;47.866;-4.222;2022-09-25T07:06:20;101940.00;;;23.20
44429;BMP180;30134;47.866;-4.222;2022-09-25T07:08:47;101942.00;;;23.20
44429;BMP180;30134;47.866;-4.222;2022-09-25T07:11:20;101939.00;;;23.20
44429;BMP180;30134;47.866;-4.222;2022-09-25T07:13:47;101934.00;;;23.20
44429;BMP180;30134;47.866;-4.222;2022-09-25T07:16:22;101945.00;;;23.20
44429;BMP180;30134;47.866;-4.222;2022-09-25T07:18:48;101947.00;;;23.20
44429;BMP180;30134;47.866;-4.222;2022-09-25T07:21:21;101944.00;;;23.20
44429;BMP180;30134;47.866;-4.222;2022-09-25T07:23:50;101949.00;;;23.20
44429;BMP180;30134;47.866;-4.222;2022-09-25T07:26:25;101934.00;;;23.20
44429;BMP180;30134;47.866;-4.222;2022-09-25T07:29:02;101936.00;;;23.20
44429;BMP180;30134;47.866;-4.222;2022-09-25T07:31:31;101938.00;;;23.20
44429;BMP180;30134;47.866;-4.222;2022-09-25T07:33:58;101943.00;;;23.20
44429;BMP180;30134;47.866;-4.222;2022-09-25T07:36:27;101942.00;;;23.20
44429;BMP180;30134;47.866;-4.222;2022-09-25T07:38:53;101945.00;;;23.20
44429;BMP180;30134;47.866;-4.222;2022-09-25T07:41:21;101951.00;;;23.20
44429;BMP180;30134;47.866;-4.222;2022-09-25T07:43:54;101945.00;;;23.20
44429;BMP180;30134;47.866;-4.222;2022-09-25T07:46:25;101945.00;;;23.20
44429;BMP180;30134;47.866;-4.222;2022-09-25T07:48:52;101954.00;;;23.20
44429;BMP180;30134;47.866;-4.222;2022-09-25T07:51:19;101946.00;;;23.20
44429;BMP180;30134;47.866;-4.222;2022-09-25T07:53:48;101955.00;;;23.20
44429;BMP180;30134;47.866;-4.222;2022-09-25T07:56:15;101947.00;;;23.20
44429;BMP180;30134;47.866;-4.222;2022-09-25T07:58:42;101952.00;;;23.20
44429;BMP180;30134;47.866;-4.222;2022-09-25T08:01:12;101949.00;;;23.10
44429;BMP180;30134;47.866;-4.222;2022-09-25T08:03:38;101957.00;;;23.10
44429;BMP180;30134;47.866;-4.222;2022-09-25T08:06:08;101955.00;;;23.20
44429;BMP180;30134;47.866;-4.222;2022-09-25T08:08:35;101954.00;;;23.10
44429;BMP180;30134;47.866;-4.222;2022-09-25T08:11:15;101955.00;;;23.10
44429;BMP180;30134;47.866;-4.222;2022-09-25T08:13:42;101958.00;;;23.10
44429;BMP180;30134;47.866;-4.222;2022-09-25T08:16:14;101954.00;;;23.10
44429;BMP180;30134;47.866;-4.222;2022-09-25T08:18:43;101964.00;;;23.10
44429;BMP180;30134;47.866;-4.222;2022-09-25T08:21:13;101973.00;;;23.10
44429;BMP180;30134;47.866;-4.222;2022-09-25T08:23:47;101972.00;;;23.00
44429;BMP180;30134;47.866;-4.222;2022-09-25T08:26:15;101966.00;;;23.00
44429;BMP180;30134;47.866;-4.222;2022-09-25T08:28:42;101966.00;;;23.00
44429;BMP180;30134;47.866;-4.222;2022-09-25T08:31:08;101973.00;;;23.00
44429;BMP180;30134;47.866;-4.222;2022-09-25T08:33:37;101972.00;;;23.00
44429;BMP180;30134;47.866;-4.222;2022-09-25T08:36:05;101973.00;;;23.00
44429;BMP180;30134;47.866;-4.222;2022-09-25T08:38:31;101961.00;;;23.00
44429;BMP180;30134;47.866;-4.222;2022-09-25T08:43:31;101968.00;;;23.00
44429;BMP180;30134;47.866;-4.222;2022-09-25T08:45:59;101969.00;;;23.00
44429;BMP180;30134;47.866;-4.222;2022-09-25T08:48:55;101968.00;;;23.00
44429;BMP180;30134;47.866;-4.222;2022-09-25T08:51:45;101963.00;;;23.00
44429;BMP180;30134;47.866;-4.222;2022-09-25T08:54:31;101971.00;;;23.00
44429;BMP180;30134;47.866;-4.222;2022-09-25T08:57:28;101977.00;;;23.00
44429;BMP180;30134;47.866;-4.222;2022-09-25T09:00:06;101979.00;;;23.00
44429;BMP180;30134;47.866;-4.222;2022-09-25T09:02:39;101992.00;;;23.00
44429;BMP180;30134;47.866;-4.222;2022-09-25T09:05:19;101994.00;;;23.00
44429;BMP180;30134;47.866;-4.222;2022-09-25T09:08:11;101991.00;;;22.90
44429;BMP180;30134;47.866;-4.222;2022-09-25T09:10:50;101993.00;;;23.00
44429;BMP180;30134;47.866;-4.222;2022-09-25T09:13:21;101980.00;;;22.90
44429;BMP180;30134;47.866;-4.222;2022-09-25T09:18:39;101980.00;;;22.90
44429;BMP180;30134;47.866;-4.222;2022-09-25T09:21:34;101983.00;;;22.90
44429;BMP180;30134;47.866;-4.222;2022-09-25T09:24:15;101988.00;;;22.90
44429;BMP180;30134;47.866;-4.222;2022-09-25T09:27:24;101985.00;;;22.90
44429;BMP180;30134;47.866;-4.222;2022-09-25T09:30:17;101982.00;;;22.90
44429;BMP180;30134;47.866;-4.222;2022-09-25T09:35:41;101979.00;;;22.90
44429;BMP180;30134;47.866;-4.222;2022-09-25T09:38:31;101972.00;;;22.90
44429;BMP180;30134;47.866;-4.222;2022-09-25T09:49:54;101974.00;;;22.90
44429;BMP180;30134;47.866;-4.222;2022-09-25T09:52:34;101977.00;;;22.90
44429;BMP180;30134;47.866;-4.222;2022-09-25T09:55:21;101970.00;;;22.90
44429;BMP180;30134;47.866;-4.222;2022-09-25T09:57:57;101970.00;;;22.90
44429;BMP180;30134;47.866;-4.222;2022-09-25T10:00:25;101967.00;;;22.90
44429;BMP180;30134;47.866;-4.222;2022-09-25T10:03:10;101971.00;;;22.90
44429;BMP180;30134;47.866;-4.222;2022-09-25T10:05:47;101968.00;;;22.90
44429;BMP180;30134;47.866;-4.222;2022-09-25T10:08:15;101966.00;;;23.00
44429;BMP180;30134;47.866;-4.222;2022-09-25T10:10:51;101963.00;;;22.90
44429;BMP180;30134;47.866;-4.222;2022-09-25T10:13:31;101974.00;;;22.90
44429;BMP180;30134;47.866;-4.222;2022-09-25T10:18:53;101965.00;;;23.00
44429;BMP180;30134;47.866;-4.222;2022-09-25T10:21:48;101976.00;;;23.00
44429;BMP180;30134;47.866;-4.222;2022-09-25T10:24:49;101974.00;;;23.00
44429;BMP180;30134;47.866;-4.222;2022-09-25T10:27:33;101968.00;;;23.00
44429;BMP180;30134;47.866;-4.222;2022-09-25T10:30:27;101973.00;;;23.00
44429;BMP180;30134;47.866;-4.222;2022-09-25T10:38:04;101972.00;;;23.00
44429;BMP180;30134;47.866;-4.222;2022-09-25T10:40:36;101975.00;;;23.00
44429;BMP180;30134;47.866;-4.222;2022-09-25T10:45:38;101981.00;;;23.00
44429;BMP180;30134;47.866;-4.222;2022-09-25T10:51:15;101986.00;;;23.00
44429;BMP180;30134;47.866;-4.222;2022-09-25T10:53:47;101983.00;;;23.00
44429;BMP180;30134;47.866;-4.222;2022-09-25T10:56:23;101984.00;;;23.00
44429;BMP180;30134;47.866;-4.222;2022-09-25T10:58:57;101982.00;;;23.00
44429;BMP180;30134;47.866;-4.222;2022-09-25T11:01:38;101984.00;;;23.00
44429;BMP180;30134;47.866;-4.222;2022-09-25T11:04:29;101986.00;;;23.00
44429;BMP180;30134;47.866;-4.222;2022-09-25T11:07:02;101994.00;;;23.10
44429;BMP180;30134;47.866;-4.222;2022-09-25T11:09:33;101994.00;;;23.10
44429;BMP180;30134;47.866;-4.222;2022-09-25T11:12:24;101987.00;;;23.10
44429;BMP180;30134;47.866;-4.222;2022-09-25T11:15:20;101989.00;;;23.10
44429;BMP180;30134;47.866;-4.222;2022-09-25T11:17:54;101983.00;;;23.10
44429;BMP180;30134;47.866;-4.222;2022-09-25T11:20:29;101988.00;;;23.10
44429;BMP180;30134;47.866;-4.222;2022-09-25T11:23:25;101982.00;;;23.10
44429;BMP180;30134;47.866;-4.222;2022-09-25T11:26:15;101987.00;;;23.10
44429;BMP180;30134;47.866;-4.222;2022-09-25T11:38:05;101983.00;;;23.10
44429;BMP180;30134;47.866;-4.222;2022-09-25T11:41:02;101982.00;;;23.10
44429;BMP180;30134;47.866;-4.222;2022-09-25T11:43:57;101982.00;;;23.10
44429;BMP180;30134;47.866;-4.222;2022-09-25T11:47:03;101983.00;;;23.10
44429;BMP180;30134;47.866;-4.222;2022-09-25T11:49:34;101985.00;;;23.10
44429;BMP180;30134;47.866;-4.222;2022-09-25T11:52:36;101989.00;;;23.10
44429;BMP180;30134;47.866;-4.222;2022-09-25T11:55:35;101985.00;;;23.10
44429;BMP180;30134;47.866;-4.222;2022-09-25T12:01:48;101974.00;;;23.10
44429;BMP180;30134;47.866;-4.222;2022-09-25T12:04:32;101982.00;;;23.10
44429;BMP180;30134;47.866;-4.222;2022-09-25T12:13:37;101973.00;;;23.10
44429;BMP180;30134;47.866;-4.222;2022-09-25T12:16:22;101979.00;;;23.10
44429;BMP180;30134;47.866;-4.222;2022-09-25T12:18:59;101977.00;;;23.10
44429;BMP180;30134;47.866;-4.222;2022-09-25T12:21:36;101970.00;;;23.10
44429;BMP180;30134;47.866;-4.222;2022-09-25T12:24:32;101967.00;;;23.10
44429;BMP180;30134;47.866;-4.222;2022-09-25T12:32:43;101953.00;;;23.10
44429;BMP180;30134;47.866;-4.222;2022-09-25T12:38:01;101949.00;;;23.10
44429;BMP180;30134;47.866;-4.222;2022-09-25T12:41:03;101947.00;;;23.10
44429;BMP180;30134;47.866;-4.222;2022-09-25T12:49:01;101945.00;;;23.10
44429;BMP180;30134;47.866;-4.222;2022-09-25T12:51:35;101948.00;;;23.10
44429;BMP180;30134;47.866;-4.222;2022-09-25T12:57:35;101945.00;;;23.10
44429;BMP180;30134;47.866;-4.222;2022-09-25T13:00:23;101958.00;;;23.10
44429;BMP180;30134;47.866;-4.222;2022-09-25T13:03:17;101950.00;;;23.10
44429;BMP180;30134;47.866;-4.222;2022-09-25T13:06:02;101950.00;;;23.10
44429;BMP180;30134;47.866;-4.222;2022-09-25T13:08:54;101946.00;;;23.20
44429;BMP180;30134;47.866;-4.222;2022-09-25T13:11:47;101944.00;;;23.30
44429;BMP180;30134;47.866;-4.222;2022-09-25T13:14:47;101934.00;;;23.40
44429;BMP180;30134;47.866;-4.222;2022-09-25T13:17:17;101932.00;;;23.50
44429;BMP180;30134;47.866;-4.222;2022-09-25T13:19:43;101924.00;;;23.50
44429;BMP180;30134;47.866;-4.222;2022-09-25T13:22:23;101922.00;;;23.60
44429;BMP180;30134;47.866;-4.222;2022-09-25T13:25:12;101929.00;;;23.70
44429;BMP180;30134;47.866;-4.222;2022-09-25T13:27:42;101923.00;;;23.80
44429;BMP180;30134;47.866;-4.222;2022-09-25T13:30:27;101910.00;;;23.90
44429;BMP180;30134;47.866;-4.222;2022-09-25T13:33:01;101917.00;;;23.90
44429;BMP180;30134;47.866;-4.222;2022-09-25T13:35:31;101907.00;;;24.00
44429;BMP180;30134;47.866;-4.222;2022-09-25T13:38:17;101916.00;;;24.00
44429;BMP180;30134;47.866;-4.222;2022-09-25T13:41:12;101909.00;;;24.10
44429;BMP180;30134;47.866;-4.222;2022-09-25T13:43:39;101905.00;;;24.20
44429;BMP180;30134;47.866;-4.222;2022-09-25T13:48:51;101915.00;;;24.20
44429;BMP180;30134;47.866;-4.222;2022-09-25T13:54:25;101909.00;;;24.40
44429;BMP180;30134;47.866;-4.222;2022-09-25T13:56:50;101901.00;;;24.40
44429;BMP180;30134;47.866;-4.222;2022-09-25T13:59:24;101894.00;;;24.40
44429;BMP180;30134;47.866;-4.222;2022-09-25T14:02:41;101908.00;;;24.50
44429;BMP180;30134;47.866;-4.222;2022-09-25T14:05:08;101902.00;;;24.50
44429;BMP180;30134;47.866;-4.222;2022-09-25T14:07:39;101909.00;;;24.60
44429;BMP180;30134;47.866;-4.222;2022-09-25T14:10:08;101909.00;;;24.60
44429;BMP180;30134;47.866;-4.222;2022-09-25T14:12:43;101910.00;;;24.60
44429;BMP180;30134;47.866;-4.222;2022-09-25T14:15:31;101908.00;;;24.70
44429;BMP180;30134;47.866;-4.222;2022-09-25T14:18:04;101904.00;;;24.70
44429;BMP180;30134;47.866;-4.222;2022-09-25T14:20:45;101900.00;;;24.70
44429;BMP180;30134;47.866;-4.222;2022-09-25T14:23:17;101905.00;;;24.80
44429;BMP180;30134;47.866;-4.222;2022-09-25T14:26:05;101899.00;;;24.80
44429;BMP180;30134;47.866;-4.222;2022-09-25T14:28:45;101903.00;;;24.80
44429;BMP180;30134;47.866;-4.222;2022-09-25T14:37:34;101888.00;;;24.90
44429;BMP180;30134;47.866;-4.222;2022-09-25T14:40:34;101888.00;;;25.00
44429;BMP180;30134;47.866;-4.222;2022-09-25T14:48:41;101888.00;;;25.00
44429;BMP180;30134;47.866;-4.222;2022-09-25T14:51:14;101884.00;;;25.00
44429;BMP180;30134;47.866;-4.222;2022-09-25T14:53:51;101884.00;;;25.10
44429;BMP180;30134;47.866;-4.222;2022-09-25T14:56:19;101884.00;;;25.10
44429;BMP180;30134;47.866;-4.222;2022-09-25T14:58:57;101870.00;;;25.10
44429;BMP180;30134;47.866;-4.222;2022-09-25T15:01:30;101875.00;;;25.10
44429;BMP180;30134;47.866;-4.222;2022-09-25T15:04:04;101869.00;;;25.10
44429;BMP180;30134;47.866;-4.222;2022-09-25T15:06:34;101862.00;;;25.20
44429;BMP180;30134;47.866;-4.222;2022-09-25T15:09:01;101872.00;;;25.20
44429;BMP180;30134;47.866;-4.222;2022-09-25T15:11:40;101873.00;;;25.20
44429;BMP180;30134;47.866;-4.222;2022-09-25T15:14:15;101881.00;;;25.20
44429;BMP180;30134;47.866;-4.222;2022-09-25T15:16:42;101872.00;;;25.30
44429;BMP180;30134;47.866;-4.222;2022-09-25T15:19:45;101874.00;;;25.30
44429;BMP180;30134;47.866;-4.222;2022-09-25T15:22:19;101870.00;;;25.30
44429;BMP180;30134;47.866;-4.222;2022-09-25T15:24:56;101865.00;;;25.30
44429;BMP180;30134;47.866;-4.222;2022-09-25T15:27:23;101860.00;;;25.30
44429;BMP180;30134;47.866;-4.222;2022-09-25T15:29:52;101863.00;;;25.30
44429;BMP180;30134;47.866;-4.222;2022-09-25T15:32:27;101870.00;;;25.30
44429;BMP180;30134;47.866;-4.222;2022-09-25T15:37:36;101870.00;;;25.40
44429;BMP180;30134;47.866;-4.222;2022-09-25T15:42:48;101872.00;;;25.40
44429;BMP180;30134;47.866;-4.222;2022-09-25T15:45:56;101863.00;;;25.40
44429;BMP180;30134;47.866;-4.222;2022-09-25T15:48:30;101865.00;;;25.40
44429;BMP180;30134;47.866;-4.222;2022-09-25T15:53:38;101876.00;;;25.50
44429;BMP180;30134;47.866;-4.222;2022-09-25T15:56:24;101875.00;;;25.50
44429;BMP180;30134;47.866;-4.222;2022-09-25T16:01:41;101879.00;;;25.50
44429;BMP180;30134;47.866;-4.222;2022-09-25T16:04:28;101884.00;;;25.50
44429;BMP180;30134;47.866;-4.222;2022-09-25T16:07:29;101887.00;;;25.50
44429;BMP180;30134;47.866;-4.222;2022-09-25T16:12:46;101884.00;;;25.60
44429;BMP180;30134;47.866;-4.222;2022-09-25T16:17:58;101895.00;;;25.60
44429;BMP180;30134;47.866;-4.222;2022-09-25T16:20:36;101897.00;;;25.60
44429;BMP180;30134;47.866;-4.222;2022-09-25T16:23:06;101896.00;;;25.60
44429;BMP180;30134;47.866;-4.222;2022-09-25T16:25:45;101895.00;;;25.60
44429;BMP180;30134;47.866;-4.222;2022-09-25T16:31:10;101903.00;;;25.70
44429;BMP180;30134;47.866;-4.222;2022-09-25T16:33:41;101908.00;;;25.70
44429;BMP180;30134;47.866;-4.222;2022-09-25T16:36:13;101910.00;;;25.80
44429;BMP180;30134;47.866;-4.222;2022-09-25T16:38:42;101905.00;;;25.80
44429;BMP180;30134;47.866;-4.222;2022-09-25T16:41:26;101913.00;;;25.80
44429;BMP180;30134;47.866;-4.222;2022-09-25T16:49:22;101904.00;;;25.90
44429;BMP180;30134;47.866;-4.222;2022-09-25T16:51:51;101906.00;;;25.90
44429;BMP180;30134;47.866;-4.222;2022-09-25T16:54:19;101908.00;;;25.90